Monarch, Montana
Current Conditions -  °F | °C
As of 3:56 AM on Friday 31 Oct 2014 (Local Time) from KGFA Reporting Station
Scattered Clouds Scattered Clouds  
Wind Chill:   Ceiling: Unl
Heat Index:   Visibility: 10mi
Dew Point:   Wind: 3mph
Humidity: 89%   Direction: 100°E
Pressure: 29.94"   Gusts: NA
Location:  47.1°N, 110.83°W
Report Text: KGFA 310956Z AUTO 10003KT 10SM SCT210 02/00 A2994 RMK AO2 SLP156 T00190003
Loading
Personal Weather Stations






























Interactive Weather Map
Tropical Storm Tracking
New forecast layout! Learn more

10-Day Weather Forecast

Advertisements
Track Severe Weather on mobile